Wetterdaten: Woche 08.02.10 - 14.02.10 (KW6)
Datum Zeit Temp. Innen Temp. Aussen UV X Diff Temp. Feuchte Inne Feuchte Auss Sonnenschein Luftdruck Regen ab 0,1 Wind Sonnenschein Windben
08.02.2010 00:00 12,1 C 2,2 C 0,0 UV-I 0,0 C 51 % 93 % 0 % 1015,8 hPa 0,0 l/m 0,7 km/h (0 Bft) 0,00 h 1,0 km/h (0 Bft)
08.02.2010 01:00 12,1 C 2,0 C 0,0 UV-I 0,0 C 51 % 93 % 0 % 1015,9 hPa 0,0 l/m 0,0 km/h (0 Bft) 0,00 h 0,2 km/h (0 Bft)
08.02.2010 02:00 12,0 C 1,8 C 0,0 UV-I 0,0 C 51 % 93 % 0 % 1015,1 hPa 0,0 l/m 0,1 km/h (0 Bft) 0,00 h 0,3 km/h (0 Bft)
08.02.2010 03:00 12,0 C 1,5 C 0,0 UV-I 0,0 C 50 % 93 % 0 % 1014,1 hPa 0,0 l/m 0,8 km/h (0 Bft) 0,00 h 1,7 km/h (1 Bft)
08.02.2010 04:00 11,9 C 1,2 C 0,0 UV-I 0,0 C 50 % 93 % 0 % 1013,3 hPa 0,0 l/m 0,2 km/h (0 Bft) 0,00 h 0,6 km/h (0 Bft)
08.02.2010 05:00 11,9 C 0,8 C 0,0 UV-I 0,0 C 50 % 93 % 0 % 1012,5 hPa 0,0 l/m 0,1 km/h (0 Bft) 0,00 h 0,4 km/h (0 Bft)
08.02.2010 06:00 11,8 C 0,6 C 0,0 UV-I 0,0 C 49 % 93 % 0 % 1011,9 hPa 0,0 l/m 0,2 km/h (0 Bft) 0,00 h 0,3 km/h (0 Bft)
08.02.2010 07:00 11,6 C 0,4 C 0,0 UV-I 0,0 C 49 % 93 % 0 % 1011,5 hPa 0,0 l/m 0,1 km/h (0 Bft) 0,00 h 0,5 km/h (0 Bft)
08.02.2010 08:00 11,6 C 0,3 C 0,0 UV-I 0,0 C 49 % 93 % 0 % 1011,3 hPa 0,0 l/m 0,4 km/h (0 Bft) 0,00 h 0,9 km/h (0 Bft)
08.02.2010 09:00 11,6 C 0,1 C 0,0 UV-I 0,0 C 48 % 93 % 0 % 1011,1 hPa 0,0 l/m 0,1 km/h (0 Bft) 0,00 h 0,3 km/h (0 Bft)
08.02.2010 10:00 11,6 C 0,1 C 0,1 UV-I 0,0 C 48 % 91 % 0 % 1010,9 hPa 0,0 l/m 1,5 km/h (1 Bft) 0,00 h 2,4 km/h (1 Bft)
08.02.2010 11:00 11,6 C 0,3 C 0,5 UV-I 0,1 C 46 % 88 % 3 % 1010,4 hPa 0,0 l/m 0,6 km/h (0 Bft) 0,00 h 1,1 km/h (1 Bft)
08.02.2010 12:00 11,8 C 0,6 C 0,7 UV-I 0,2 C 46 % 86 % 6 % 1010,0 hPa 0,0 l/m 0,7 km/h (0 Bft) 0,00 h 1,6 km/h (1 Bft)
08.02.2010 13:00 11,8 C 0,7 C 0,3 UV-I 0,0 C 45 % 85 % 0 % 1009,3 hPa 0,0 l/m 0,5 km/h (0 Bft) 0,00 h 0,7 km/h (0 Bft)
08.02.2010 14:00 11,7 C 0,7 C 0,3 UV-I 0,0 C 45 % 84 % 0 % 1008,7 hPa 0,0 l/m 0,4 km/h (0 Bft) 0,00 h 1,0 km/h (0 Bft)
08.02.2010 15:00 11,6 C 0,6 C 0,2 UV-I 0,0 C 45 % 85 % 0 % 1008,0 hPa 0,0 l/m 0,5 km/h (0 Bft) 0,00 h 1,1 km/h (1 Bft)
08.02.2010 16:00 11,6 C 0,4 C 0,1 UV-I 0,0 C 44 % 84 % 0 % 1007,6 hPa 0,0 l/m 0,6 km/h (0 Bft) 0,00 h 1,3 km/h (1 Bft)
08.02.2010 17:00 11,6 C -0,2 C 0,0 UV-I 0,0 C 44 % 84 % 0 % 1007,0 hPa 0,0 l/m 0,8 km/h (0 Bft) 0,00 h 1,1 km/h (1 Bft)
08.02.2010 18:00 11,4 C -0,5 C 0,0 UV-I 0,0 C 44 % 84 % 0 % 1006,7 hPa 0,0 l/m 1,3 km/h (1 Bft) 0,00 h 2,7 km/h (1 Bft)
08.02.2010 19:00 11,2 C -0,7 C 0,0 UV-I 0,0 C 44 % 84 % 0 % 1006,7 hPa 0,0 l/m 1,1 km/h (1 Bft) 0,00 h 2,0 km/h (1 Bft)
08.02.2010 20:00 11,1 C -0,8 C 0,0 UV-I 0,0 C 44 % 84 % 0 % 1006,5 hPa 0,0 l/m 0,8 km/h (0 Bft) 0,00 h 1,7 km/h (1 Bft)
08.02.2010 21:00 11,1 C -0,9 C 0,0 UV-I 0,0 C 43 % 84 % 0 % 1006,5 hPa 0,0 l/m 1,3 km/h (1 Bft) 0,00 h 2,4 km/h (1 Bft)
08.02.2010 22:00 11,0 C -0,9 C 0,0 UV-I 0,0 C 43 % 84 % 0 % 1006,2 hPa 0,0 l/m 0,6 km/h (0 Bft) 0,00 h 1,7 km/h (1 Bft)
08.02.2010 23:00 10,9 C -1,2 C 0,0 UV-I 0,0 C 43 % 83 % 0 % 1006,0 hPa 0,0 l/m 1,2 km/h (1 Bft) 0,00 h 1,9 km/h (1 Bft)
09.02.2010 00:00 10,8 C -1,4 C 0,0 UV-I 0,0 C 43 % 83 % 0 % 1005,6 hPa 0,0 l/m 0,4 km/h (0 Bft) 0,00 h 1,2 km/h (1 Bft)
09.02.2010 01:00 10,7 C -1,6 C 0,0 UV-I 0,0 C 43 % 83 % 0 % 1005,5 hPa 0,0 l/m 0,7 km/h (0 Bft) 0,00 h 1,3 km/h (1 Bft)
09.02.2010 02:00 10,7 C -1,7 C 0,0 UV-I 0,0 C 42 % 83 % 0 % 1005,4 hPa 0,0 l/m 1,0 km/h (0 Bft) 0,00 h 2,2 km/h (1 Bft)
09.02.2010 03:00 10,6 C -1,9 C 0,0 UV-I 0,0 C 42 % 83 % 0 % 1005,2 hPa 0,0 l/m 0,4 km/h (0 Bft) 0,00 h 1,1 km/h (1 Bft)
09.02.2010 04:00 10,4 C -1,9 C 0,0 UV-I 0,0 C 42 % 83 % 0 % 1004,7 hPa 0,0 l/m 0,3 km/h (0 Bft) 0,00 h 0,6 km/h (0 Bft)
09.02.2010 05:00 10,4 C -2,0 C 0,0 UV-I 0,0 C 42 % 83 % 0 % 1004,7 hPa 0,0 l/m 0,2 km/h (0 Bft) 0,00 h 0,8 km/h (0 Bft)
09.02.2010 06:00 10,4 C -2,1 C 0,0 UV-I 0,0 C 42 % 83 % 0 % 1004,7 hPa 0,0 l/m 0,5 km/h (0 Bft) 0,00 h 0,7 km/h (0 Bft)
09.02.2010 07:00 10,2 C -2,4 C 0,0 UV-I 0,0 C 42 % 83 % 0 % 1004,7 hPa 0,0 l/m 1,2 km/h (1 Bft) 0,00 h 1,9 km/h (1 Bft)
09.02.2010 08:00 10,2 C -2,4 C 0,0 UV-I 0,0 C 41 % 83 % 0 % 1004,9 hPa 0,0 l/m 0,2 km/h (0 Bft) 0,00 h 0,6 km/h (0 Bft)
09.02.2010 09:00 10,1 C -2,5 C 0,0 UV-I 0,0 C 41 % 82 % 0 % 1005,1 hPa 0,0 l/m 0,8 km/h (0 Bft) 0,00 h 0,9 km/h (0 Bft)
09.02.2010 10:00 10,3 C -2,9 C 0,3 UV-I 0,0 C 42 % 85 % 0 % 1005,3 hPa 0,0 l/m 4,2 km/h (1 Bft) 0,00 h 5,0 km/h (1 Bft)
09.02.2010 11:00 10,7 C -3,0 C 0,9 UV-I 0,0 C 42 % 84 % 0 % 1005,8 hPa 0,0 l/m 5,7 km/h (1 Bft) 0,00 h 5,3 km/h (1 Bft)
09.02.2010 12:00 10,9 C -2,8 C 1,6 UV-I 0,6 C 42 % 82 % 16 % 1005,9 hPa 0,0 l/m 5,8 km/h (2 Bft) 0,00 h 5,7 km/h (1 Bft)
09.02.2010 13:00 11,0 C -3,0 C 1,4 UV-I 0,0 C 42 % 83 % 0 % 1005,9 hPa 0,0 l/m 8,1 km/h (2 Bft) 0,00 h 7,0 km/h (2 Bft)
09.02.2010 14:00 11,3 C -3,0 C 1,7 UV-I 0,5 C 41 % 81 % 14 % 1006,2 hPa 0,0 l/m 7,2 km/h (2 Bft) 0,00 h 6,5 km/h (2 Bft)
09.02.2010 15:00 11,3 C -3,1 C 1,0 UV-I 0,1 C 41 % 79 % 2 % 1006,1 hPa 0,0 l/m 6,0 km/h (2 Bft) 0,00 h 5,9 km/h (2 Bft)
09.02.2010 16:00 11,3 C -3,2 C 0,5 UV-I 0,1 C 42 % 78 % 3 % 1006,2 hPa 0,0 l/m 6,0 km/h (2 Bft) 0,00 h 5,5 km/h (1 Bft)
09.02.2010 17:00 10,8 C -3,6 C 0,0 UV-I 0,0 C 40 % 79 % 0 % 1005,8 hPa 0,0 l/m 7,8 km/h (2 Bft) 0,00 h 6,8 km/h (2 Bft)
09.02.2010 18:00 10,2 C -3,8 C 0,0 UV-I 0,0 C 39 % 79 % 0 % 1005,8 hPa 0,0 l/m 6,7 km/h (2 Bft) 0,00 h 5,6 km/h (1 Bft)
09.02.2010 19:00 9,9 C -3,7 C 0,0 UV-I 0,0 C 39 % 79 % 0 % 1005,9 hPa 0,0 l/m 5,4 km/h (1 Bft) 0,00 h 5,8 km/h (1 Bft)
09.02.2010 20:00 9,8 C -3,7 C 0,0 UV-I 0,0 C 38 % 77 % 0 % 1005,9 hPa 0,0 l/m 6,0 km/h (2 Bft) 0,00 h 5,0 km/h (1 Bft)
09.02.2010 21:00 9,6 C -3,5 C 0,0 UV-I 0,0 C 38 % 75 % 0 % 1006,2 hPa 0,0 l/m 5,8 km/h (2 Bft) 0,00 h 5,6 km/h (1 Bft)
09.02.2010 22:00 9,6 C -3,4 C 0,0 UV-I 0,0 C 38 % 75 % 0 % 1006,6 hPa 0,0 l/m 4,9 km/h (1 Bft) 0,00 h 4,6 km/h (1 Bft)
09.02.2010 23:00 9,6 C -3,4 C 0,0 UV-I 0,0 C 38 % 76 % 0 % 1006,5 hPa 0,0 l/m 4,9 km/h (1 Bft) 0,00 h 5,3 km/h (1 Bft)
10.02.2010 00:00 9,5 C -3,7 C 0,0 UV-I 0,0 C 38 % 79 % 0 % 1006,4 hPa 0,0 l/m 3,7 km/h (1 Bft) 0,00 h 5,1 km/h (1 Bft)
10.02.2010 01:00 9,4 C -4,5 C 0,0 UV-I 0,0 C 38 % 82 % 0 % 1006,3 hPa 0,0 l/m 0,9 km/h (0 Bft) 0,00 h 1,6 km/h (1 Bft)
10.02.2010 02:00 9,2 C -5,2 C 0,0 UV-I 0,0 C 39 % 84 % 0 % 1006,0 hPa 0,0 l/m 0,5 km/h (0 Bft) 0,00 h 1,1 km/h (0 Bft)
10.02.2010 03:00 9,2 C -5,3 C 0,0 UV-I 0,0 C 39 % 86 % 0 % 1006,2 hPa 0,0 l/m 1,9 km/h (1 Bft) 0,00 h 2,2 km/h (1 Bft)
10.02.2010 04:00 9,2 C -5,5 C 0,0 UV-I 0,0 C 39 % 87 % 0 % 1006,1 hPa 0,0 l/m 0,5 km/h (0 Bft) 0,00 h 0,5 km/h (0 Bft)
10.02.2010 05:00 9,1 C -6,2 C 0,0 UV-I 0,0 C 39 % 88 % 0 % 1006,0 hPa 0,0 l/m 0,1 km/h (0 Bft) 0,00 h 0,0 km/h (0 Bft)
10.02.2010 06:00 9,0 C -6,1 C 0,0 UV-I 0,0 C 39 % 90 % 0 % 1006,2 hPa 0,0 l/m 2,7 km/h (1 Bft) 0,00 h 3,7 km/h (1 Bft)
10.02.2010 07:00 8,9 C -5,7 C 0,0 UV-I 0,0 C 39 % 90 % 0 % 1006,5 hPa 0,0 l/m 4,9 km/h (1 Bft) 0,00 h 5,0 km/h (1 Bft)
10.02.2010 08:00 9,3 C -5,3 C 0,0 UV-I 0,0 C 40 % 90 % 0 % 1007,2 hPa 0,0 l/m 1,4 km/h (1 Bft) 0,00 h 2,1 km/h (1 Bft)
10.02.2010 09:00 9,6 C -4,9 C 0,2 UV-I 0,3 C 40 % 89 % 9 % 1007,5 hPa 0,0 l/m 2,2 km/h (1 Bft) 0,00 h 3,3 km/h (1 Bft)
10.02.2010 10:00 9,8 C -4,3 C 0,9 UV-I 0,9 C 40 % 88 % 27 % 1008,0 hPa 0,0 l/m 5,5 km/h (1 Bft) 0,00 h 5,0 km/h (1 Bft)
10.02.2010 11:00 9,9 C -3,6 C 0,8 UV-I 0,5 C 40 % 88 % 14 % 1008,2 hPa 0,0 l/m 5,4 km/h (1 Bft) 0,00 h 6,5 km/h (2 Bft)
10.02.2010 12:00 10,0 C -2,9 C 1,1 UV-I 0,4 C 40 % 87 % 12 % 1008,3 hPa 0,0 l/m 6,5 km/h (2 Bft) 0,00 h 6,2 km/h (2 Bft)
10.02.2010 13:00 10,2 C -2,6 C 1,3 UV-I 0,4 C 41 % 87 % 12 % 1008,6 hPa 0,0 l/m 6,9 km/h (2 Bft) 0,00 h 6,1 km/h (2 Bft)
10.02.2010 14:00 10,9 C -2,0 C 1,6 UV-I 1,5 C 40 % 85 % 43 % 1009,8 hPa 0,0 l/m 7,8 km/h (2 Bft) 0,00 h 7,7 km/h (2 Bft)
10.02.2010 15:00 10,9 C -2,0 C 0,9 UV-I 0,0 C 38 % 83 % 1 % 1008,8 hPa 0,0 l/m 6,1 km/h (2 Bft) 0,00 h 5,5 km/h (1 Bft)
10.02.2010 16:00 10,4 C -2,1 C 0,3 UV-I 0,1 C 38 % 82 % 4 % 1008,6 hPa 0,0 l/m 4,9 km/h (1 Bft) 0,00 h 4,8 km/h (1 Bft)
10.02.2010 17:00 10,0 C -2,3 C 0,0 UV-I 0,0 C 40 % 85 % 0 % 1008,4 hPa 0,0 l/m 1,0 km/h (0 Bft) 0,00 h 0,9 km/h (0 Bft)
10.02.2010 18:00 9,6 C -2,6 C 0,0 UV-I 0,0 C 41 % 88 % 0 % 1008,8 hPa 0,0 l/m 0,0 km/h (0 Bft) 0,00 h 0,1 km/h (0 Bft)
10.02.2010 19:00 9,5 C -3,0 C 0,0 UV-I 0,0 C 41 % 89 % 0 % 1008,9 hPa 0,0 l/m 0,3 km/h (0 Bft) 0,00 h 0,7 km/h (0 Bft)
10.02.2010 20:00 9,3 C -3,4 C 0,0 UV-I 0,0 C 41 % 87 % 0 % 1009,2 hPa 0,0 l/m 0,1 km/h (0 Bft) 0,00 h 0,2 km/h (0 Bft)
10.02.2010 21:00 9,2 C -4,3 C 0,0 UV-I 0,0 C 40 % 85 % 0 % 1009,8 hPa 0,0 l/m 0,3 km/h (0 Bft) 0,00 h 0,3 km/h (0 Bft)
10.02.2010 22:00 9,1 C -4,5 C 0,0 UV-I 0,0 C 40 % 87 % 0 % 1009,8 hPa 0,0 l/m 1,0 km/h (0 Bft) 0,00 h 2,3 km/h (1 Bft)
10.02.2010 23:00 9,0 C -4,6 C 0,0 UV-I 0,0 C 40 % 86 % 0 % 1010,0 hPa 0,0 l/m 0,1 km/h (0 Bft) 0,00 h 0,3 km/h (0 Bft)
11.02.2010 00:00 8,9 C -4,4 C 0,0 UV-I 0,0 C 40 % 86 % 0 % 1010,2 hPa 0,0 l/m 0,4 km/h (0 Bft) 0,00 h 1,3 km/h (1 Bft)
11.02.2010 01:00 9,0 C -4,1 C 0,0 UV-I 0,0 C 39 % 86 % 0 % 1010,2 hPa 0,0 l/m 1,8 km/h (1 Bft) 0,00 h 3,6 km/h (1 Bft)
11.02.2010 02:00 8,9 C -4,1 C 0,0 UV-I 0,0 C 40 % 88 % 0 % 1010,2 hPa 0,0 l/m 5,0 km/h (1 Bft) 0,00 h 6,1 km/h (2 Bft)
11.02.2010 03:00 9,0 C -4,1 C 0,0 UV-I 0,0 C 40 % 89 % 0 % 1010,3 hPa 0,0 l/m 5,4 km/h (1 Bft) 0,00 h 5,3 km/h (1 Bft)
11.02.2010 04:00 8,9 C -4,0 C 0,0 UV-I 0,0 C 40 % 90 % 0 % 1010,6 hPa 0,0 l/m 4,4 km/h (1 Bft) 0,00 h 4,5 km/h (1 Bft)
11.02.2010 05:00 8,9 C -3,6 C 0,0 UV-I 0,0 C 41 % 90 % 0 % 1010,6 hPa 0,0 l/m 4,1 km/h (1 Bft) 0,00 h 4,9 km/h (1 Bft)
11.02.2010 06:00 9,0 C -3,3 C 0,0 UV-I 0,0 C 41 % 88 % 0 % 1010,7 hPa 0,0 l/m 3,1 km/h (1 Bft) 0,00 h 4,1 km/h (1 Bft)
11.02.2010 07:00 8,9 C -3,3 C 0,0 UV-I 0,0 C 41 % 87 % 0 % 1010,8 hPa 0,0 l/m 3,7 km/h (1 Bft) 0,00 h 3,9 km/h (1 Bft)
11.02.2010 08:00 8,8 C -3,3 C 0,0 UV-I 0,0 C 41 % 88 % 0 % 1011,2 hPa 0,0 l/m 5,3 km/h (1 Bft) 0,00 h 5,7 km/h (1 Bft)
11.02.2010 09:00 8,9 C -3,0 C 0,0 UV-I 0,0 C 41 % 88 % 0 % 1011,7 hPa 0,0 l/m 5,1 km/h (1 Bft) 0,00 h 5,3 km/h (1 Bft)
11.02.2010 10:00 9,1 C -2,1 C 0,0 UV-I 0,0 C 41 % 87 % 0 % 1011,9 hPa 0,0 l/m 5,9 km/h (2 Bft) 0,00 h 6,8 km/h (2 Bft)
11.02.2010 11:00 9,3 C -1,4 C 0,0 UV-I 0,0 C 41 % 85 % 0 % 1012,1 hPa 0,0 l/m 7,0 km/h (2 Bft) 0,00 h 7,2 km/h (2 Bft)
11.02.2010 12:00 9,3 C -1,3 C 0,6 UV-I 0,0 C 42 % 87 % 0 % 1012,1 hPa 0,0 l/m 10,1 km/h (2 Bft) 0,00 h 10,4 km/h (2 Bft)
11.02.2010 13:00 9,4 C -1,0 C 0,8 UV-I 0,0 C 42 % 84 % 0 % 1012,0 hPa 0,0 l/m 10,1 km/h (2 Bft) 0,00 h 9,1 km/h (2 Bft)
11.02.2010 14:00 9,5 C -0,9 C 0,4 UV-I 0,0 C 42 % 83 % 0 % 1012,2 hPa 0,0 l/m 8,3 km/h (2 Bft) 0,00 h 8,5 km/h (2 Bft)
11.02.2010 15:00 9,6 C -0,9 C 0,9 UV-I 0,0 C 42 % 82 % 0 % 1011,7 hPa 0,0 l/m 10,6 km/h (2 Bft) 0,00 h 9,9 km/h (2 Bft)
11.02.2010 16:00 9,6 C -0,9 C 0,2 UV-I 0,0 C 41 % 79 % 0 % 1011,8 hPa 0,0 l/m 11,7 km/h (2 Bft) 0,00 h 10,3 km/h (2 Bft)
11.02.2010 17:00 9,4 C -1,3 C 0,0 UV-I 0,0 C 40 % 78 % 0 % 1012,1 hPa 0,0 l/m 10,5 km/h (2 Bft) 0,00 h 9,2 km/h (2 Bft)
11.02.2010 18:00 9,2 C -1,7 C 0,0 UV-I 0,0 C 40 % 80 % 0 % 1012,5 hPa 0,0 l/m 10,1 km/h (2 Bft) 0,00 h 9,8 km/h (2 Bft)
11.02.2010 19:00 9,2 C -1,9 C 0,0 UV-I 0,0 C 41 % 82 % 0 % 1012,8 hPa 0,0 l/m 9,1 km/h (2 Bft) 0,00 h 8,8 km/h (2 Bft)
11.02.2010 20:00 9,1 C -2,1 C 0,0 UV-I 0,0 C 40 % 82 % 0 % 1012,9 hPa 0,0 l/m 11,9 km/h (2 Bft) 0,00 h 11,1 km/h (2 Bft)
11.02.2010 21:00 9,0 C -2,4 C 0,0 UV-I 0,0 C 40 % 83 % 0 % 1013,0 hPa 0,0 l/m 12,3 km/h (3 Bft) 0,00 h 10,5 km/h (2 Bft)
11.02.2010 22:00 9,0 C -2,5 C 0,0 UV-I 0,0 C 41 % 84 % 0 % 1013,5 hPa 0,0 l/m 8,5 km/h (2 Bft) 0,00 h 7,8 km/h (2 Bft)
11.02.2010 23:00 8,8 C -2,9 C 0,0 UV-I 0,0 C 41 % 85 % 0 % 1013,5 hPa 0,0 l/m 7,8 km/h (2 Bft) 0,00 h 7,7 km/h (2 Bft)
12.02.2010 00:00 8,8 C -2,9 C 0,0 UV-I 0,0 C 41 % 86 % 0 % 1013,6 hPa 0,0 l/m 8,1 km/h (2 Bft) 0,00 h 7,0 km/h (2 Bft)
12.02.2010 01:00 8,9 C -2,9 C 0,0 UV-I 0,0 C 41 % 86 % 0 % 1013,9 hPa 0,0 l/m 7,6 km/h (2 Bft) 0,00 h 7,3 km/h (2 Bft)
12.02.2010 02:00 8,8 C -3,0 C 0,0 UV-I 0,0 C 41 % 86 % 0 % 1013,9 hPa 0,0 l/m 8,4 km/h (2 Bft) 0,00 h 7,7 km/h (2 Bft)
12.02.2010 03:00 8,8 C -3,2 C 0,0 UV-I 0,0 C 41 % 86 % 0 % 1014,1 hPa 0,0 l/m 6,6 km/h (2 Bft) 0,00 h 6,8 km/h (2 Bft)
12.02.2010 04:00 8,8 C -3,4 C 0,0 UV-I 0,0 C 41 % 87 % 0 % 1014,4 hPa 0,0 l/m 7,1 km/h (2 Bft) 0,00 h 5,8 km/h (2 Bft)
12.02.2010 05:00 8,8 C -3,6 C 0,0 UV-I 0,0 C 41 % 88 % 0 % 1014,7 hPa 0,0 l/m 7,0 km/h (2 Bft) 0,00 h 7,2 km/h (2 Bft)
12.02.2010 06:00 8,7 C -3,7 C 0,0 UV-I 0,0 C 41 % 88 % 0 % 1014,7 hPa 0,0 l/m 7,9 km/h (2 Bft) 0,00 h 6,6 km/h (2 Bft)
12.02.2010 07:00 8,6 C -3,6 C 0,0 UV-I 0,0 C 41 % 89 % 0 % 1014,6 hPa 0,0 l/m 7,9 km/h (2 Bft) 0,00 h 7,3 km/h (2 Bft)
12.02.2010 08:00 8,6 C -3,4 C 0,0 UV-I 0,0 C 42 % 90 % 0 % 1014,7 hPa 0,0 l/m 5,8 km/h (2 Bft) 0,00 h 5,9 km/h (2 Bft)
12.02.2010 09:00 8,6 C -3,1 C 0,1 UV-I 0,0 C 42 % 89 % 0 % 1015,6 hPa 0,0 l/m 5,9 km/h (2 Bft) 0,00 h 5,9 km/h (2 Bft)
12.02.2010 10:00 8,8 C -2,7 C 0,3 UV-I 0,0 C 42 % 89 % 0 % 1016,1 hPa 0,0 l/m 8,2 km/h (2 Bft) 0,00 h 7,5 km/h (2 Bft)
12.02.2010 11:00 8,8 C -2,6 C 0,4 UV-I 0,0 C 42 % 88 % 0 % 1016,2 hPa 0,0 l/m 8,1 km/h (2 Bft) 0,00 h 8,3 km/h (2 Bft)
12.02.2010 12:00 9,0 C -2,3 C 1,2 UV-I 0,0 C 42 % 88 % 0 % 1016,1 hPa 0,0 l/m 8,5 km/h (2 Bft) 0,00 h 7,3 km/h (2 Bft)
12.02.2010 13:00 9,2 C -2,1 C 0,8 UV-I 0,0 C 41 % 86 % 0 % 1016,2 hPa 0,0 l/m 9,0 km/h (2 Bft) 0,00 h 7,4 km/h (2 Bft)
12.02.2010 14:00 9,1 C -2,1 C 0,3 UV-I 0,0 C 41 % 85 % 0 % 1016,0 hPa 0,0 l/m 8,3 km/h (2 Bft) 0,00 h 7,7 km/h (2 Bft)
12.02.2010 15:00 9,0 C -2,1 C 0,1 UV-I 0,0 C 41 % 85 % 0 % 1015,9 hPa 0,0 l/m 8,0 km/h (2 Bft) 0,00 h 7,4 km/h (2 Bft)
12.02.2010 16:00 8,8 C -2,5 C 0,1 UV-I 0,0 C 41 % 86 % 0 % 1016,2 hPa 0,0 l/m 6,7 km/h (2 Bft) 0,00 h 6,2 km/h (2 Bft)
12.02.2010 17:00 8,8 C -2,8 C 0,0 UV-I 0,0 C 42 % 87 % 0 % 1016,5 hPa 0,0 l/m 4,7 km/h (1 Bft) 0,00 h 4,6 km/h (1 Bft)
12.02.2010 18:00 8,7 C -2,9 C 0,0 UV-I 0,0 C 42 % 88 % 0 % 1016,8 hPa 0,0 l/m 3,5 km/h (1 Bft) 0,00 h 3,7 km/h (1 Bft)
12.02.2010 19:00 8,6 C -3,1 C 0,0 UV-I 0,0 C 42 % 89 % 0 % 1016,9 hPa 0,0 l/m 2,2 km/h (1 Bft) 0,00 h 3,1 km/h (1 Bft)
12.02.2010 20:00 8,6 C -3,1 C 0,0 UV-I 0,0 C 43 % 90 % 0 % 1017,3 hPa 0,0 l/m 0,9 km/h (0 Bft) 0,00 h 2,1 km/h (1 Bft)
12.02.2010 21:00 8,6 C -3,1 C 0,0 UV-I 0,0 C 43 % 91 % 0 % 1017,3 hPa 0,0 l/m 1,4 km/h (1 Bft) 0,00 h 2,8 km/h (1 Bft)
12.02.2010 22:00 8,6 C -2,9 C 0,0 UV-I 0,0 C 43 % 91 % 0 % 1017,3 hPa 0,0 l/m 3,1 km/h (1 Bft) 0,00 h 3,7 km/h (1 Bft)
12.02.2010 23:00 8,6 C -2,9 C 0,0 UV-I 0,0 C 43 % 90 % 0 % 1017,5 hPa 0,0 l/m 3,7 km/h (1 Bft) 0,00 h 3,8 km/h (1 Bft)
13.02.2010 00:00 8,6 C -3,0 C 0,0 UV-I 0,0 C 43 % 90 % 0 % 1017,5 hPa 0,0 l/m 5,4 km/h (1 Bft) 0,00 h 5,8 km/h (2 Bft)
13.02.2010 01:00 8,6 C -3,1 C 0,0 UV-I 0,0 C 43 % 90 % 0 % 1017,3 hPa 0,0 l/m 4,5 km/h (1 Bft) 0,00 h 4,5 km/h (1 Bft)
13.02.2010 02:00 8,6 C -3,1 C 0,0 UV-I 0,0 C 43 % 91 % 0 % 1017,1 hPa 0,0 l/m 3,1 km/h (1 Bft) 0,00 h 2,9 km/h (1 Bft)
13.02.2010 03:00 8,6 C -2,9 C 0,0 UV-I 0,0 C 43 % 90 % 0 % 1017,1 hPa 0,0 l/m 3,6 km/h (1 Bft) 0,00 h 3,9 km/h (1 Bft)
13.02.2010 04:00 8,6 C -2,9 C 0,0 UV-I 0,0 C 43 % 89 % 0 % 1017,1 hPa 0,0 l/m 4,3 km/h (1 Bft) 0,00 h 4,2 km/h (1 Bft)
13.02.2010 05:00 8,6 C -2,9 C 0,0 UV-I 0,0 C 43 % 88 % 0 % 1017,0 hPa 0,0 l/m 5,0 km/h (1 Bft) 0,00 h 4,8 km/h (1 Bft)
13.02.2010 06:00 8,6 C -2,9 C 0,0 UV-I 0,0 C 42 % 88 % 0 % 1016,5 hPa 0,0 l/m 3,4 km/h (1 Bft) 0,00 h 3,9 km/h (1 Bft)
13.02.2010 07:00 8,6 C -3,0 C 0,0 UV-I 0,0 C 42 % 88 % 0 % 1016,3 hPa 0,0 l/m 2,7 km/h (1 Bft) 0,00 h 3,7 km/h (1 Bft)
13.02.2010 08:00 8,6 C -2,9 C 0,0 UV-I 0,0 C 42 % 89 % 0 % 1016,1 hPa 0,0 l/m 1,9 km/h (1 Bft) 0,00 h 3,1 km/h (1 Bft)
13.02.2010 09:00 8,6 C -2,7 C 0,0 UV-I 0,0 C 43 % 89 % 0 % 1016,1 hPa 0,0 l/m 2,6 km/h (1 Bft) 0,00 h 3,6 km/h (1 Bft)
13.02.2010 10:00 8,8 C -2,1 C 0,0 UV-I 0,2 C 43 % 88 % 7 % 1016,1 hPa 0,0 l/m 1,7 km/h (1 Bft) 0,00 h 2,0 km/h (1 Bft)
13.02.2010 11:00 9,0 C -1,2 C 0,9 UV-I 1,5 C 43 % 87 % 41 % 1016,5 hPa 0,0 l/m 3,9 km/h (1 Bft) 0,00 h 4,1 km/h (1 Bft)
13.02.2010 12:00 9,5 C -0,7 C 2,1 UV-I 1,6 C 42 % 85 % 46 % 1016,6 hPa 0,1 l/m 5,6 km/h (1 Bft) 0,00 h 6,3 km/h (2 Bft)
13.02.2010 13:00 10,3 C 0,2 C 2,3 UV-I 4,9 C 42 % 83 % 88 % 1016,5 hPa 0,9 l/m 3,6 km/h (1 Bft) 0,70 h 3,9 km/h (1 Bft)
13.02.2010 14:00 10,8 C -0,1 C 2,0 UV-I 1,2 C 41 % 82 % 35 % 1016,4 hPa 0,0 l/m 5,1 km/h (1 Bft) 0,10 h 4,9 km/h (1 Bft)
13.02.2010 15:00 11,0 C -0,1 C 1,4 UV-I 1,2 C 40 % 78 % 33 % 1016,1 hPa 0,0 l/m 7,3 km/h (2 Bft) 0,00 h 7,1 km/h (2 Bft)
13.02.2010 16:00 10,6 C -0,3 C 0,0 UV-I 0,1 C 38 % 77 % 2 % 1015,2 hPa 0,0 l/m 3,3 km/h (1 Bft) 0,00 h 3,3 km/h (1 Bft)
13.02.2010 17:00 9,9 C -0,5 C 0,0 UV-I 0,0 C 40 % 79 % 0 % 1014,4 hPa 0,0 l/m 1,5 km/h (1 Bft) 0,00 h 2,0 km/h (1 Bft)
13.02.2010 18:00 9,5 C -0,7 C 0,0 UV-I 0,0 C 41 % 81 % 0 % 1014,3 hPa 0,0 l/m 1,1 km/h (0 Bft) 0,00 h 1,4 km/h (1 Bft)
13.02.2010 19:00 9,4 C -0,9 C 0,0 UV-I 0,0 C 42 % 83 % 0 % 1014,2 hPa 0,0 l/m 2,1 km/h (1 Bft) 0,00 h 2,8 km/h (1 Bft)
13.02.2010 20:00 9,3 C -1,2 C 0,0 UV-I 0,0 C 43 % 87 % 0 % 1013,9 hPa 0,0 l/m 0,9 km/h (0 Bft) 0,00 h 2,0 km/h (1 Bft)
13.02.2010 21:00 9,2 C -1,4 C 0,0 UV-I 0,0 C 44 % 89 % 0 % 1013,8 hPa 0,0 l/m 1,4 km/h (1 Bft) 0,00 h 3,2 km/h (1 Bft)
13.02.2010 22:00 9,2 C -1,5 C 0,0 UV-I 0,0 C 44 % 90 % 0 % 1013,5 hPa 0,0 l/m 1,1 km/h (1 Bft) 0,00 h 2,0 km/h (1 Bft)
13.02.2010 23:00 9,3 C -1,6 C 0,0 UV-I 0,0 C 44 % 90 % 0 % 1013,3 hPa 0,0 l/m 1,2 km/h (1 Bft) 0,00 h 1,2 km/h (1 Bft)
14.02.2010 00:00 9,2 C -1,6 C 0,0 UV-I 0,0 C 44 % 90 % 0 % 1013,1 hPa 0,0 l/m 1,5 km/h (1 Bft) 0,00 h 1,8 km/h (1 Bft)
14.02.2010 01:00 9,2 C -1,7 C 0,0 UV-I 0,0 C 45 % 90 % 0 % 1012,6 hPa 0,0 l/m 0,7 km/h (0 Bft) 0,00 h 0,3 km/h (0 Bft)
14.02.2010 02:00 9,2 C -1,9 C 0,0 UV-I 0,0 C 44 % 90 % 0 % 1012,6 hPa 0,0 l/m 1,2 km/h (1 Bft) 0,00 h 1,8 km/h (1 Bft)
14.02.2010 03:00 9,1 C -2,1 C 0,0 UV-I 0,0 C 44 % 91 % 0 % 1012,0 hPa 0,0 l/m 0,9 km/h (0 Bft) 0,00 h 1,7 km/h (1 Bft)
14.02.2010 04:00 9,1 C -2,3 C 0,0 UV-I 0,0 C 44 % 91 % 0 % 1011,8 hPa 0,0 l/m 1,3 km/h (1 Bft) 0,00 h 1,4 km/h (1 Bft)
14.02.2010 05:00 9,1 C -2,5 C 0,0 UV-I 0,0 C 44 % 91 % 0 % 1011,5 hPa 0,0 l/m 0,7 km/h (0 Bft) 0,00 h 1,1 km/h (0 Bft)
14.02.2010 06:00 9,2 C -2,5 C 0,0 UV-I 0,0 C 44 % 91 % 0 % 1011,6 hPa 0,0 l/m 0,2 km/h (0 Bft) 0,00 h 0,9 km/h (0 Bft)
14.02.2010 07:00 9,2 C -2,7 C 0,0 UV-I 0,0 C 44 % 91 % 0 % 1011,6 hPa 0,0 l/m 0,4 km/h (0 Bft) 0,00 h 1,1 km/h (1 Bft)
14.02.2010 08:00 9,2 C -2,9 C 0,0 UV-I 0,0 C 44 % 92 % 0 % 1011,3 hPa 0,0 l/m 0,3 km/h (0 Bft) 0,00 h 0,6 km/h (0 Bft)
14.02.2010 09:00 9,1 C -2,8 C 0,0 UV-I 0,0 C 44 % 92 % 0 % 1011,4 hPa 0,0 l/m 0,2 km/h (0 Bft) 0,00 h 0,0 km/h (0 Bft)
14.02.2010 10:00 9,2 C -2,4 C 0,0 UV-I 0,2 C 44 % 92 % 5 % 1011,5 hPa 0,0 l/m 0,0 km/h (0 Bft) 0,00 h 0,0 km/h (0 Bft)
14.02.2010 11:00 9,3 C -1,8 C 0,0 UV-I 0,8 C 44 % 91 % 22 % 1011,6 hPa 0,0 l/m 0,4 km/h (0 Bft) 0,00 h 0,4 km/h (0 Bft)
14.02.2010 12:00 9,6 C -1,2 C 0,0 UV-I 1,2 C 44 % 89 % 33 % 1011,5 hPa 0,0 l/m 0,0 km/h (0 Bft) 0,00 h 0,0 km/h (0 Bft)
14.02.2010 13:00 9,9 C -0,9 C 0,0 UV-I 1,4 C 43 % 86 % 40 % 1011,1 hPa 0,1 l/m 0,3 km/h (0 Bft) 0,00 h 0,9 km/h (0 Bft)
14.02.2010 14:00 10,0 C -0,7 C 0,0 UV-I 0,6 C 42 % 85 % 18 % 1010,8 hPa 0,1 l/m 0,8 km/h (0 Bft) 0,00 h 1,6 km/h (1 Bft)
14.02.2010 15:00 9,9 C -0,8 C 0,0 UV-I 0,1 C 42 % 84 % 2 % 1010,2 hPa 0,1 l/m 0,4 km/h (0 Bft) 0,00 h 0,8 km/h (0 Bft)
14.02.2010 16:00 9,8 C -1,1 C 0,0 UV-I 0,0 C 43 % 86 % 0 % 1010,0 hPa 0,0 l/m 0,6 km/h (0 Bft) 0,00 h 0,8 km/h (0 Bft)
14.02.2010 17:00 9,6 C -1,5 C 0,0 UV-I 0,0 C 43 % 88 % 0 % 1009,8 hPa 0,0 l/m 0,1 km/h (0 Bft) 0,00 h 0,4 km/h (0 Bft)
14.02.2010 18:00 9,5 C -1,9 C 0,0 UV-I 0,0 C 44 % 88 % 0 % 1009,7 hPa 0,0 l/m 0,0 km/h (0 Bft) 0,00 h 0,0 km/h (0 Bft)
14.02.2010 19:00 9,4 C -2,1 C 0,0 UV-I 0,0 C 44 % 89 % 0 % 1009,6 hPa 0,0 l/m 0,2 km/h (0 Bft) 0,00 h 0,3 km/h (0 Bft)
14.02.2010 20:00 9,2 C -2,1 C 0,0 UV-I 0,0 C 44 % 91 % 0 % 1009,1 hPa 0,0 l/m 0,0 km/h (0 Bft) 0,00 h 0,0 km/h (0 Bft)
14.02.2010 21:00 9,2 C -2,1 C 0,0 UV-I 0,0 C 45 % 91 % 0 % 1009,1 hPa 0,0 l/m 0,0 km/h (0 Bft) 0,00 h 0,0 km/h (0 Bft)
14.02.2010 22:00 9,2 C -2,1 C 0,0 UV-I 0,0 C 45 % 91 % 0 % 1008,7 hPa 0,0 l/m 0,0 km/h (0 Bft) 0,00 h 0,0 km/h (0 Bft)
14.02.2010 23:00 9,2 C -2,3 C 0,0 UV-I 0,0 C 45 % 91 % 0 % 1008,2 hPa 0,0 l/m 0,0 km/h (0 Bft) 0,00 h 0,0 km/h (0 Bft)
Min-Datum _ 13.02.10 10.02.10 08.02.10 08.02.10 09.02.10 09.02.10 08.02.10 09.02.10 - 08.02.10 - 08.02.10
_ Min-Zeit 07:58 05:48 00:04 00:04 22:46 22:36 00:04 04:32 - 00:04 - 00:04
Minimum _ 8,4 C -6,5 C 0,0 UV-I 0,0 C 37 % 74 % 0 % 1004,6 hPa - 0,0 km/h (0 Bft) - 0,0 km/h (0 Bft)
Max-Datum _ 08.02.10 08.02.10 13.02.10 13.02.10 08.02.10 08.02.10 13.02.10 12.02.10 13.02.10 11.02.10 13.02.10 11.02.10
_ Max-Zeit 00:04 00:04 13:28 13:40 00:04 00:04 13:14 22:52 13:32 21:02 13:09 20:32
Maximum _ 12,2 C 2,2 C 3,3 UV-I 7,8 C 51 % 93 % 100 % 1017,7 hPa 0,9 l/m 15,3 km/h
SW (3 Bft)
0,03 h 24,3 km/h
SW (4 Bft)
Durchschnitt _ 9,7 C -2,2 C 0,2 UV-I 0,1 C 42 % 86 % 3 % 1011,1 hPa #1,2 l/m 3,4 km/h (1 Bft) #48 min. 3,6 km/h (1 Bft)
© 2012 W. Hausmann